sensor_id;sensor_type;location;lat;lon;timestamp;P1;durP1;ratioP1;P2;durP2;ratioP2
69900;SDS011;57183;50.930;5.406;2023-05-07T00:01:56;10.82;;;5.95;;
69900;SDS011;57183;50.930;5.406;2023-05-07T00:04:23;5.07;;;4.57;;
69900;SDS011;57183;50.930;5.406;2023-05-07T00:06:59;5.53;;;4.45;;
69900;SDS011;57183;50.930;5.406;2023-05-07T00:09:26;5.18;;;4.68;;
69900;SDS011;57183;50.930;5.406;2023-05-07T00:11:52;4.63;;;3.67;;
69900;SDS011;57183;50.930;5.406;2023-05-07T00:14:18;4.25;;;3.80;;
69900;SDS011;57183;50.930;5.406;2023-05-07T00:16:48;5.57;;;4.35;;
69900;SDS011;57183;50.930;5.406;2023-05-07T00:19:14;4.47;;;4.07;;
69900;SDS011;57183;50.930;5.406;2023-05-07T00:21:40;4.68;;;3.72;;
69900;SDS011;57183;50.930;5.406;2023-05-07T00:24:08;5.97;;;4.57;;
69900;SDS011;57183;50.930;5.406;2023-05-07T00:26:34;7.22;;;4.43;;
69900;SDS011;57183;50.930;5.406;2023-05-07T00:28:59;4.35;;;3.95;;
69900;SDS011;57183;50.930;5.406;2023-05-07T00:31:41;4.47;;;4.05;;
69900;SDS011;57183;50.930;5.406;2023-05-07T00:34:16;5.18;;;4.68;;
69900;SDS011;57183;50.930;5.406;2023-05-07T00:36:45;6.10;;;5.32;;
69900;SDS011;57183;50.930;5.406;2023-05-07T00:39:16;6.20;;;4.93;;
69900;SDS011;57183;50.930;5.406;2023-05-07T00:41:42;5.60;;;5.13;;
69900;SDS011;57183;50.930;5.406;2023-05-07T00:44:11;5.55;;;5.03;;
69900;SDS011;57183;50.930;5.406;2023-05-07T00:46:37;7.30;;;5.13;;
69900;SDS011;57183;50.930;5.406;2023-05-07T00:49:03;6.90;;;4.47;;
69900;SDS011;57183;50.930;5.406;2023-05-07T00:51:30;5.55;;;5.00;;
69900;SDS011;57183;50.930;5.406;2023-05-07T00:53:59;5.53;;;4.97;;
69900;SDS011;57183;50.930;5.406;2023-05-07T00:56:30;5.32;;;4.60;;
69900;SDS011;57183;50.930;5.406;2023-05-07T00:58:58;4.57;;;4.13;;
69900;SDS011;57183;50.930;5.406;2023-05-07T01:01:35;5.65;;;4.53;;
69900;SDS011;57183;50.930;5.406;2023-05-07T01:04:02;5.72;;;4.75;;
69900;SDS011;57183;50.930;5.406;2023-05-07T01:06:31;5.45;;;4.72;;
69900;SDS011;57183;50.930;5.406;2023-05-07T01:09:08;7.25;;;4.88;;
69900;SDS011;57183;50.930;5.406;2023-05-07T01:11:34;6.82;;;6.18;;
69900;SDS011;57183;50.930;5.406;2023-05-07T01:14:00;6.60;;;5.50;;
69900;SDS011;57183;50.930;5.406;2023-05-07T01:16:29;6.78;;;5.13;;
69900;SDS011;57183;50.930;5.406;2023-05-07T01:19:00;6.97;;;4.85;;
69900;SDS011;57183;50.930;5.406;2023-05-07T01:21:31;5.57;;;4.53;;
69900;SDS011;57183;50.930;5.406;2023-05-07T01:23:59;5.13;;;4.70;;
69900;SDS011;57183;50.930;5.406;2023-05-07T01:26:25;6.50;;;5.45;;
69900;SDS011;57183;50.930;5.406;2023-05-07T01:28:53;6.57;;;5.10;;
69900;SDS011;57183;50.930;5.406;2023-05-07T01:31:20;10.23;;;4.65;;
69900;SDS011;57183;50.930;5.406;2023-05-07T01:33:49;6.90;;;5.13;;
69900;SDS011;57183;50.930;5.406;2023-05-07T01:36:18;5.97;;;5.47;;
69900;SDS011;57183;50.930;5.406;2023-05-07T01:38:48;7.68;;;5.22;;
69900;SDS011;57183;50.930;5.406;2023-05-07T01:41:16;7.97;;;5.97;;
69900;SDS011;57183;50.930;5.406;2023-05-07T01:43:49;7.15;;;5.85;;
69900;SDS011;57183;50.930;5.406;2023-05-07T01:46:17;11.57;;;5.47;;
69900;SDS011;57183;50.930;5.406;2023-05-07T01:48:48;6.93;;;6.20;;
69900;SDS011;57183;50.930;5.406;2023-05-07T01:51:22;6.82;;;6.18;;
69900;SDS011;57183;50.930;5.406;2023-05-07T01:53:55;6.82;;;6.13;;
69900;SDS011;57183;50.930;5.406;2023-05-07T01:56:24;7.05;;;6.00;;
69900;SDS011;57183;50.930;5.406;2023-05-07T01:58:50;9.48;;;6.13;;
69900;SDS011;57183;50.930;5.406;2023-05-07T02:01:16;7.30;;;6.40;;
69900;SDS011;57183;50.930;5.406;2023-05-07T02:03:43;7.18;;;6.00;;
69900;SDS011;57183;50.930;5.406;2023-05-07T02:06:12;7.22;;;6.25;;
69900;SDS011;57183;50.930;5.406;2023-05-07T02:08:49;10.60;;;6.38;;
69900;SDS011;57183;50.930;5.406;2023-05-07T02:11:18;5.80;;;5.30;;
69900;SDS011;57183;50.930;5.406;2023-05-07T02:13:48;7.20;;;5.40;;
69900;SDS011;57183;50.930;5.406;2023-05-07T02:16:15;7.45;;;5.80;;
69900;SDS011;57183;50.930;5.406;2023-05-07T02:18:41;7.22;;;6.30;;
69900;SDS011;57183;50.930;5.406;2023-05-07T02:21:06;6.30;;;5.70;;
69900;SDS011;57183;50.930;5.406;2023-05-07T02:23:32;6.05;;;5.35;;
69900;SDS011;57183;50.930;5.406;2023-05-07T02:26:06;8.13;;;6.00;;
69900;SDS011;57183;50.930;5.406;2023-05-07T02:29:21;6.97;;;6.28;;
69900;SDS011;57183;50.930;5.406;2023-05-07T02:31:54;9.52;;;6.13;;
69900;SDS011;57183;50.930;5.406;2023-05-07T02:34:21;7.20;;;6.28;;
69900;SDS011;57183;50.930;5.406;2023-05-07T02:36:49;9.95;;;6.35;;
69900;SDS011;57183;50.930;5.406;2023-05-07T02:39:15;8.85;;;6.30;;
69900;SDS011;57183;50.930;5.406;2023-05-07T02:41:48;9.30;;;5.95;;
69900;SDS011;57183;50.930;5.406;2023-05-07T02:44:14;6.82;;;6.00;;
69900;SDS011;57183;50.930;5.406;2023-05-07T02:46:40;7.07;;;5.85;;
69900;SDS011;57183;50.930;5.406;2023-05-07T02:49:05;10.27;;;6.72;;
69900;SDS011;57183;50.930;5.406;2023-05-07T02:51:31;7.80;;;6.47;;
69900;SDS011;57183;50.930;5.406;2023-05-07T02:54:12;7.75;;;6.95;;
69900;SDS011;57183;50.930;5.406;2023-05-07T02:56:40;9.07;;;7.53;;
69900;SDS011;57183;50.930;5.406;2023-05-07T02:59:18;7.60;;;6.95;;
69900;SDS011;57183;50.930;5.406;2023-05-07T03:02:04;8.23;;;6.93;;
69900;SDS011;57183;50.930;5.406;2023-05-07T03:04:30;9.35;;;7.05;;
69900;SDS011;57183;50.930;5.406;2023-05-07T03:06:56;7.72;;;7.00;;
69900;SDS011;57183;50.930;5.406;2023-05-07T03:09:23;11.15;;;7.30;;
69900;SDS011;57183;50.930;5.406;2023-05-07T03:11:56;6.68;;;6.07;;
69900;SDS011;57183;50.930;5.406;2023-05-07T03:14:22;8.88;;;7.63;;
69900;SDS011;57183;50.930;5.406;2023-05-07T03:16:53;9.35;;;6.95;;
69900;SDS011;57183;50.930;5.406;2023-05-07T03:19:22;7.43;;;6.68;;
69900;SDS011;57183;50.930;5.406;2023-05-07T03:21:48;8.85;;;7.18;;
69900;SDS011;57183;50.930;5.406;2023-05-07T03:24:14;7.50;;;6.80;;
69900;SDS011;57183;50.930;5.406;2023-05-07T03:26:40;9.10;;;7.93;;
69900;SDS011;57183;50.930;5.406;2023-05-07T03:29:09;7.72;;;7.00;;
69900;SDS011;57183;50.930;5.406;2023-05-07T03:31:34;8.05;;;7.35;;
69900;SDS011;57183;50.930;5.406;2023-05-07T03:34:01;8.35;;;6.40;;
69900;SDS011;57183;50.930;5.406;2023-05-07T03:36:27;8.45;;;6.68;;
69900;SDS011;57183;50.930;5.406;2023-05-07T03:39:06;7.63;;;6.95;;
69900;SDS011;57183;50.930;5.406;2023-05-07T03:41:38;7.65;;;6.57;;
69900;SDS011;57183;50.930;5.406;2023-05-07T03:44:10;9.27;;;6.72;;
69900;SDS011;57183;50.930;5.406;2023-05-07T03:46:36;7.85;;;7.05;;
69900;SDS011;57183;50.930;5.406;2023-05-07T03:49:14;9.98;;;7.88;;
69900;SDS011;57183;50.930;5.406;2023-05-07T03:51:41;9.10;;;6.93;;
69900;SDS011;57183;50.930;5.406;2023-05-07T03:57:07;8.27;;;6.85;;
69900;SDS011;57183;50.930;5.406;2023-05-07T03:59:33;7.95;;;6.50;;
69900;SDS011;57183;50.930;5.406;2023-05-07T04:02:00;7.45;;;6.18;;
69900;SDS011;57183;50.930;5.406;2023-05-07T04:04:31;7.40;;;6.68;;
69900;SDS011;57183;50.930;5.406;2023-05-07T04:06:59;7.20;;;6.47;;
69900;SDS011;57183;50.930;5.406;2023-05-07T04:09:35;11.70;;;7.30;;
69900;SDS011;57183;50.930;5.406;2023-05-07T04:12:17;8.75;;;7.85;;
69900;SDS011;57183;50.930;5.406;2023-05-07T04:14:50;7.68;;;6.90;;
69900;SDS011;57183;50.930;5.406;2023-05-07T04:20:56;6.97;;;6.32;;
69900;SDS011;57183;50.930;5.406;2023-05-07T04:23:38;7.57;;;6.85;;
69900;SDS011;57183;50.930;5.406;2023-05-07T04:26:08;7.88;;;7.18;;
69900;SDS011;57183;50.930;5.406;2023-05-07T04:28:55;10.88;;;7.13;;
69900;SDS011;57183;50.930;5.406;2023-05-07T04:31:29;8.60;;;7.10;;
69900;SDS011;57183;50.930;5.406;2023-05-07T04:33:55;7.35;;;6.70;;
69900;SDS011;57183;50.930;5.406;2023-05-07T04:36:21;10.07;;;7.97;;
69900;SDS011;57183;50.930;5.406;2023-05-07T04:38:47;8.10;;;6.93;;
69900;SDS011;57183;50.930;5.406;2023-05-07T04:41:21;8.50;;;7.13;;
69900;SDS011;57183;50.930;5.406;2023-05-07T04:43:48;9.00;;;6.72;;
69900;SDS011;57183;50.930;5.406;2023-05-07T04:46:20;7.78;;;7.03;;
69900;SDS011;57183;50.930;5.406;2023-05-07T04:48:55;9.88;;;6.47;;
69900;SDS011;57183;50.930;5.406;2023-05-07T04:51:31;8.55;;;7.57;;
69900;SDS011;57183;50.930;5.406;2023-05-07T04:54:14;11.43;;;7.25;;
69900;SDS011;57183;50.930;5.406;2023-05-07T04:59:21;8.82;;;7.05;;
69900;SDS011;57183;50.930;5.406;2023-05-07T05:02:10;7.95;;;7.15;;
69900;SDS011;57183;50.930;5.406;2023-05-07T05:04:36;8.45;;;6.85;;
69900;SDS011;57183;50.930;5.406;2023-05-07T05:07:08;7.15;;;6.45;;
69900;SDS011;57183;50.930;5.406;2023-05-07T05:09:46;6.75;;;6.15;;
69900;SDS011;57183;50.930;5.406;2023-05-07T05:12:12;7.72;;;6.93;;
69900;SDS011;57183;50.930;5.406;2023-05-07T05:15:06;7.38;;;6.68;;
69900;SDS011;57183;50.930;5.406;2023-05-07T05:17:33;7.10;;;6.40;;
69900;SDS011;57183;50.930;5.406;2023-05-07T05:20:01;7.53;;;6.85;;
69900;SDS011;57183;50.930;5.406;2023-05-07T05:22:38;8.00;;;7.28;;
69900;SDS011;57183;50.930;5.406;2023-05-07T05:25:04;8.32;;;7.53;;
69900;SDS011;57183;50.930;5.406;2023-05-07T05:30:52;10.05;;;8.07;;
69900;SDS011;57183;50.930;5.406;2023-05-07T05:33:18;10.15;;;8.43;;
69900;SDS011;57183;50.930;5.406;2023-05-07T05:36:05;10.07;;;8.82;;
69900;SDS011;57183;50.930;5.406;2023-05-07T05:38:31;14.68;;;8.45;;
69900;SDS011;57183;50.930;5.406;2023-05-07T05:41:01;10.90;;;9.30;;
69900;SDS011;57183;50.930;5.406;2023-05-07T05:43:31;9.55;;;8.30;;
69900;SDS011;57183;50.930;5.406;2023-05-07T05:45:58;8.68;;;7.95;;
69900;SDS011;57183;50.930;5.406;2023-05-07T05:48:25;9.05;;;8.25;;
69900;SDS011;57183;50.930;5.406;2023-05-07T05:50:51;9.27;;;8.38;;
69900;SDS011;57183;50.930;5.406;2023-05-07T05:53:17;10.95;;;8.13;;
69900;SDS011;57183;50.930;5.406;2023-05-07T05:55:43;8.85;;;7.95;;
69900;SDS011;57183;50.930;5.406;2023-05-07T05:58:21;8.88;;;8.02;;
69900;SDS011;57183;50.930;5.406;2023-05-07T06:00:47;6.55;;;5.97;;
69900;SDS011;57183;50.930;5.406;2023-05-07T06:03:13;9.57;;;7.10;;
69900;SDS011;57183;50.930;5.406;2023-05-07T06:05:39;8.10;;;7.40;;
69900;SDS011;57183;50.930;5.406;2023-05-07T06:08:04;8.85;;;7.00;;
69900;SDS011;57183;50.930;5.406;2023-05-07T06:10:30;8.77;;;7.00;;
69900;SDS011;57183;50.930;5.406;2023-05-07T06:12:56;9.25;;;6.88;;
69900;SDS011;57183;50.930;5.406;2023-05-07T06:15:22;7.47;;;5.88;;
69900;SDS011;57183;50.930;5.406;2023-05-07T06:17:47;8.23;;;7.50;;
69900;SDS011;57183;50.930;5.406;2023-05-07T06:20:14;7.40;;;6.70;;
69900;SDS011;57183;50.930;5.406;2023-05-07T06:22:39;6.70;;;6.05;;
69900;SDS011;57183;50.930;5.406;2023-05-07T06:25:05;7.40;;;6.30;;
69900;SDS011;57183;50.930;5.406;2023-05-07T06:27:31;9.70;;;7.53;;
69900;SDS011;57183;50.930;5.406;2023-05-07T06:29:57;9.98;;;6.65;;
69900;SDS011;57183;50.930;5.406;2023-05-07T06:32:23;8.93;;;6.72;;
69900;SDS011;57183;50.930;5.406;2023-05-07T06:34:48;7.68;;;6.00;;
69900;SDS011;57183;50.930;5.406;2023-05-07T06:37:14;6.35;;;4.95;;
69900;SDS011;57183;50.930;5.406;2023-05-07T06:39:40;9.40;;;6.40;;
69900;SDS011;57183;50.930;5.406;2023-05-07T06:42:05;5.50;;;4.57;;
69900;SDS011;57183;50.930;5.406;2023-05-07T06:44:31;8.23;;;4.95;;
69900;SDS011;57183;50.930;5.406;2023-05-07T06:46:57;8.65;;;4.97;;
69900;SDS011;57183;50.930;5.406;2023-05-07T06:49:22;6.60;;;5.57;;
69900;SDS011;57183;50.930;5.406;2023-05-07T06:51:48;6.15;;;5.55;;
69900;SDS011;57183;50.930;5.406;2023-05-07T06:54:14;5.90;;;5.30;;
69900;SDS011;57183;50.930;5.406;2023-05-07T06:56:40;5.35;;;4.85;;
69900;SDS011;57183;50.930;5.406;2023-05-07T06:59:05;6.93;;;5.07;;
69900;SDS011;57183;50.930;5.406;2023-05-07T07:01:31;5.57;;;5.07;;
69900;SDS011;57183;50.930;5.406;2023-05-07T07:03:57;6.25;;;4.43;;
69900;SDS011;57183;50.930;5.406;2023-05-07T07:06:23;6.75;;;4.78;;
69900;SDS011;57183;50.930;5.406;2023-05-07T07:08:48;5.93;;;5.32;;
69900;SDS011;57183;50.930;5.406;2023-05-07T07:11:14;6.13;;;5.63;;
69900;SDS011;57183;50.930;5.406;2023-05-07T07:13:40;6.30;;;5.00;;
69900;SDS011;57183;50.930;5.406;2023-05-07T07:16:07;8.25;;;4.95;;
69900;SDS011;57183;50.930;5.406;2023-05-07T07:18:33;5.47;;;4.97;;
69900;SDS011;57183;50.930;5.406;2023-05-07T07:20:59;5.60;;;5.10;;
69900;SDS011;57183;50.930;5.406;2023-05-07T07:23:24;4.55;;;4.07;;
69900;SDS011;57183;50.930;5.406;2023-05-07T07:25:50;4.90;;;4.43;;
69900;SDS011;57183;50.930;5.406;2023-05-07T07:28:16;4.88;;;3.83;;
69900;SDS011;57183;50.930;5.406;2023-05-07T07:30:42;5.70;;;4.50;;
69900;SDS011;57183;50.930;5.406;2023-05-07T07:33:08;4.65;;;4.25;;
69900;SDS011;57183;50.930;5.406;2023-05-07T07:35:33;4.82;;;4.43;;
69900;SDS011;57183;50.930;5.406;2023-05-07T07:37:59;6.93;;;4.70;;
69900;SDS011;57183;50.930;5.406;2023-05-07T07:40:26;7.85;;;4.57;;
69900;SDS011;57183;50.930;5.406;2023-05-07T07:42:52;5.47;;;4.40;;
69900;SDS011;57183;50.930;5.406;2023-05-07T07:45:18;11.55;;;4.45;;
69900;SDS011;57183;50.930;5.406;2023-05-07T07:47:44;5.20;;;4.57;;
69900;SDS011;57183;50.930;5.406;2023-05-07T07:50:10;4.75;;;4.35;;
69900;SDS011;57183;50.930;5.406;2023-05-07T07:52:36;5.38;;;4.35;;
69900;SDS011;57183;50.930;5.406;2023-05-07T07:55:02;7.22;;;4.18;;
69900;SDS011;57183;50.930;5.406;2023-05-07T07:57:28;4.68;;;4.07;;
69900;SDS011;57183;50.930;5.406;2023-05-07T07:59:54;3.75;;;3.42;;
69900;SDS011;57183;50.930;5.406;2023-05-07T08:02:20;4.45;;;4.05;;
69900;SDS011;57183;50.930;5.406;2023-05-07T08:04:46;6.30;;;4.25;;
69900;SDS011;57183;50.930;5.406;2023-05-07T08:07:11;4.65;;;4.25;;
69900;SDS011;57183;50.930;5.406;2023-05-07T08:09:38;3.95;;;3.40;;
69900;SDS011;57183;50.930;5.406;2023-05-07T08:12:05;7.15;;;3.95;;
69900;SDS011;57183;50.930;5.406;2023-05-07T08:14:31;5.65;;;3.78;;
69900;SDS011;57183;50.930;5.406;2023-05-07T08:16:57;3.67;;;3.38;;
69900;SDS011;57183;50.930;5.406;2023-05-07T08:19:23;4.57;;;3.63;;
69900;SDS011;57183;50.930;5.406;2023-05-07T08:21:49;15.57;;;3.53;;
69900;SDS011;57183;50.930;5.406;2023-05-07T08:24:15;11.00;;;5.80;;
69900;SDS011;57183;50.930;5.406;2023-05-07T08:26:43;8.20;;;5.20;;
69900;SDS011;57183;50.930;5.406;2023-05-07T08:29:09;35.85;;;18.92;;
69900;SDS011;57183;50.930;5.406;2023-05-07T08:31:35;22.13;;;12.23;;
69900;SDS011;57183;50.930;5.406;2023-05-07T08:34:01;45.35;;;22.75;;
69900;SDS011;57183;50.930;5.406;2023-05-07T08:36:28;20.90;;;10.57;;
69900;SDS011;57183;50.930;5.406;2023-05-07T08:38:54;44.38;;;20.50;;
69900;SDS011;57183;50.930;5.406;2023-05-07T08:41:20;32.00;;;17.05;;
69900;SDS011;57183;50.930;5.406;2023-05-07T08:43:46;28.08;;;15.88;;
69900;SDS011;57183;50.930;5.406;2023-05-07T08:46:18;12.90;;;7.07;;
69900;SDS011;57183;50.930;5.406;2023-05-07T08:48:48;30.13;;;14.13;;
69900;SDS011;57183;50.930;5.406;2023-05-07T08:51:16;38.30;;;18.02;;
69900;SDS011;57183;50.930;5.406;2023-05-07T08:53:43;9.55;;;6.22;;
69900;SDS011;57183;50.930;5.406;2023-05-07T08:56:10;20.65;;;12.82;;
69900;SDS011;57183;50.930;5.406;2023-05-07T08:58:36;7.57;;;5.57;;
69900;SDS011;57183;50.930;5.406;2023-05-07T09:01:03;9.30;;;4.25;;
69900;SDS011;57183;50.930;5.406;2023-05-07T09:03:36;9.07;;;4.55;;
69900;SDS011;57183;50.930;5.406;2023-05-07T09:06:03;5.15;;;4.00;;
69900;SDS011;57183;50.930;5.406;2023-05-07T09:08:29;4.88;;;4.20;;
69900;SDS011;57183;50.930;5.406;2023-05-07T09:10:54;6.55;;;4.63;;
69900;SDS011;57183;50.930;5.406;2023-05-07T09:13:20;7.22;;;5.10;;
69900;SDS011;57183;50.930;5.406;2023-05-07T09:15:46;5.50;;;3.92;;
69900;SDS011;57183;50.930;5.406;2023-05-07T09:18:12;4.88;;;4.10;;
69900;SDS011;57183;50.930;5.406;2023-05-07T09:20:38;7.03;;;4.78;;
69900;SDS011;57183;50.930;5.406;2023-05-07T09:23:05;7.18;;;4.18;;
69900;SDS011;57183;50.930;5.406;2023-05-07T09:25:32;6.88;;;4.55;;
69900;SDS011;57183;50.930;5.406;2023-05-07T09:27:59;6.20;;;4.03;;
69900;SDS011;57183;50.930;5.406;2023-05-07T09:30:29;5.78;;;4.05;;
69900;SDS011;57183;50.930;5.406;2023-05-07T09:32:58;5.80;;;4.07;;
69900;SDS011;57183;50.930;5.406;2023-05-07T09:35:25;5.20;;;3.97;;
69900;SDS011;57183;50.930;5.406;2023-05-07T09:37:57;7.00;;;4.45;;
69900;SDS011;57183;50.930;5.406;2023-05-07T09:40:25;5.43;;;3.63;;
69900;SDS011;57183;50.930;5.406;2023-05-07T09:42:52;7.15;;;4.25;;
69900;SDS011;57183;50.930;5.406;2023-05-07T09:45:22;7.40;;;3.60;;
69900;SDS011;57183;50.930;5.406;2023-05-07T09:47:57;6.80;;;4.90;;
69900;SDS011;57183;50.930;5.406;2023-05-07T09:50:25;6.00;;;4.18;;
69900;SDS011;57183;50.930;5.406;2023-05-07T09:52:57;7.47;;;4.80;;
69900;SDS011;57183;50.930;5.406;2023-05-07T09:55:23;6.18;;;5.53;;
69900;SDS011;57183;50.930;5.406;2023-05-07T09:57:51;8.55;;;5.68;;
69900;SDS011;57183;50.930;5.406;2023-05-07T10:00:21;7.32;;;5.57;;
69900;SDS011;57183;50.930;5.406;2023-05-07T10:02:48;7.90;;;5.28;;
69900;SDS011;57183;50.930;5.406;2023-05-07T10:05:16;7.80;;;5.32;;
69900;SDS011;57183;50.930;5.406;2023-05-07T10:07:43;6.05;;;5.03;;
69900;SDS011;57183;50.930;5.406;2023-05-07T10:10:10;6.93;;;5.35;;
69900;SDS011;57183;50.930;5.406;2023-05-07T10:12:36;7.03;;;5.28;;
69900;SDS011;57183;50.930;5.406;2023-05-07T10:15:10;8.23;;;4.75;;
69900;SDS011;57183;50.930;5.406;2023-05-07T10:17:36;6.57;;;4.35;;
69900;SDS011;57183;50.930;5.406;2023-05-07T10:20:03;6.15;;;4.53;;
69900;SDS011;57183;50.930;5.406;2023-05-07T10:22:39;6.68;;;4.28;;
69900;SDS011;57183;50.930;5.406;2023-05-07T10:25:17;8.90;;;4.70;;
69900;SDS011;57183;50.930;5.406;2023-05-07T10:27:48;7.82;;;5.07;;
69900;SDS011;57183;50.930;5.406;2023-05-07T10:30:38;11.20;;;5.10;;
69900;SDS011;57183;50.930;5.406;2023-05-07T10:33:09;9.50;;;4.93;;
69900;SDS011;57183;50.930;5.406;2023-05-07T10:35:40;8.95;;;4.82;;
69900;SDS011;57183;50.930;5.406;2023-05-07T10:38:08;9.15;;;4.75;;
69900;SDS011;57183;50.930;5.406;2023-05-07T10:40:34;9.25;;;5.07;;
69900;SDS011;57183;50.930;5.406;2023-05-07T10:43:01;9.73;;;5.15;;
69900;SDS011;57183;50.930;5.406;2023-05-07T10:45:29;8.38;;;5.05;;
69900;SDS011;57183;50.930;5.406;2023-05-07T10:48:05;6.95;;;6.05;;
69900;SDS011;57183;50.930;5.406;2023-05-07T10:50:35;27.38;;;14.18;;
69900;SDS011;57183;50.930;5.406;2023-05-07T10:55:50;31.10;;;16.75;;
69900;SDS011;57183;50.930;5.406;2023-05-07T11:00:59;16.88;;;9.88;;
69900;SDS011;57183;50.930;5.406;2023-05-07T11:03:26;11.10;;;7.60;;
69900;SDS011;57183;50.930;5.406;2023-05-07T11:06:09;11.30;;;6.95;;
69900;SDS011;57183;50.930;5.406;2023-05-07T11:11:17;28.00;;;17.60;;
69900;SDS011;57183;50.930;5.406;2023-05-07T11:13:45;10.13;;;7.72;;
69900;SDS011;57183;50.930;5.406;2023-05-07T11:16:17;13.00;;;8.20;;
69900;SDS011;57183;50.930;5.406;2023-05-07T11:18:48;11.55;;;7.47;;
69900;SDS011;57183;50.930;5.406;2023-05-07T11:24:01;11.20;;;6.53;;
69900;SDS011;57183;50.930;5.406;2023-05-07T11:26:29;10.93;;;6.38;;
69900;SDS011;57183;50.930;5.406;2023-05-07T11:28:56;10.52;;;6.65;;
69900;SDS011;57183;50.930;5.406;2023-05-07T11:31:25;11.50;;;6.90;;
69900;SDS011;57183;50.930;5.406;2023-05-07T11:33:53;12.15;;;6.15;;
69900;SDS011;57183;50.930;5.406;2023-05-07T11:36:20;10.63;;;6.18;;
69900;SDS011;57183;50.930;5.406;2023-05-07T11:38:47;14.07;;;6.07;;
69900;SDS011;57183;50.930;5.406;2023-05-07T11:41:13;9.45;;;6.05;;
69900;SDS011;57183;50.930;5.406;2023-05-07T11:43:40;9.25;;;5.70;;
69900;SDS011;57183;50.930;5.406;2023-05-07T11:46:20;10.50;;;5.20;;
69900;SDS011;57183;50.930;5.406;2023-05-07T11:48:46;7.40;;;4.32;;
69900;SDS011;57183;50.930;5.406;2023-05-07T11:51:11;9.05;;;4.50;;
69900;SDS011;57183;50.930;5.406;2023-05-07T11:53:38;7.22;;;4.70;;
69900;SDS011;57183;50.930;5.406;2023-05-07T11:56:10;8.25;;;5.47;;
69900;SDS011;57183;50.930;5.406;2023-05-07T11:58:37;8.60;;;4.50;;
69900;SDS011;57183;50.930;5.406;2023-05-07T12:01:03;7.07;;;4.78;;
69900;SDS011;57183;50.930;5.406;2023-05-07T12:03:29;7.55;;;3.53;;
69900;SDS011;57183;50.930;5.406;2023-05-07T12:05:54;9.63;;;3.47;;
69900;SDS011;57183;50.930;5.406;2023-05-07T12:08:21;8.43;;;4.05;;
69900;SDS011;57183;50.930;5.406;2023-05-07T12:10:48;9.02;;;3.55;;
69900;SDS011;57183;50.930;5.406;2023-05-07T12:13:18;7.20;;;3.60;;
69900;SDS011;57183;50.930;5.406;2023-05-07T12:15:54;8.70;;;3.28;;
69900;SDS011;57183;50.930;5.406;2023-05-07T12:18:21;8.35;;;3.80;;
69900;SDS011;57183;50.930;5.406;2023-05-07T12:20:48;5.93;;;4.05;;
69900;SDS011;57183;50.930;5.406;2023-05-07T12:23:15;12.82;;;3.40;;
69900;SDS011;57183;50.930;5.406;2023-05-07T12:25:42;9.43;;;4.00;;
69900;SDS011;57183;50.930;5.406;2023-05-07T12:28:20;5.47;;;3.80;;
69900;SDS011;57183;50.930;5.406;2023-05-07T12:30:47;7.22;;;3.42;;
69900;SDS011;57183;50.930;5.406;2023-05-07T12:33:22;8.43;;;3.75;;
69900;SDS011;57183;50.930;5.406;2023-05-07T12:35:50;7.60;;;3.60;;
69900;SDS011;57183;50.930;5.406;2023-05-07T12:38:16;9.20;;;3.33;;
69900;SDS011;57183;50.930;5.406;2023-05-07T12:40:43;6.53;;;3.95;;
69900;SDS011;57183;50.930;5.406;2023-05-07T12:43:17;5.22;;;3.92;;
69900;SDS011;57183;50.930;5.406;2023-05-07T12:45:53;8.93;;;3.85;;
69900;SDS011;57183;50.930;5.406;2023-05-07T12:48:22;7.90;;;2.92;;
69900;SDS011;57183;50.930;5.406;2023-05-07T12:50:52;7.95;;;3.53;;
69900;SDS011;57183;50.930;5.406;2023-05-07T12:53:24;7.10;;;3.45;;
69900;SDS011;57183;50.930;5.406;2023-05-07T12:55:52;9.30;;;4.03;;
69900;SDS011;57183;50.930;5.406;2023-05-07T12:58:26;9.50;;;3.80;;
69900;SDS011;57183;50.930;5.406;2023-05-07T13:00:55;2.78;;;2.38;;
69900;SDS011;57183;50.930;5.406;2023-05-07T13:05:51;3.78;;;3.05;;
69900;SDS011;57183;50.930;5.406;2023-05-07T13:08:27;3.38;;;2.17;;
69900;SDS011;57183;50.930;5.406;2023-05-07T13:10:57;8.35;;;3.13;;
69900;SDS011;57183;50.930;5.406;2023-05-07T13:13:24;5.85;;;2.72;;
69900;SDS011;57183;50.930;5.406;2023-05-07T13:15:50;3.85;;;1.75;;
69900;SDS011;57183;50.930;5.406;2023-05-07T13:18:16;4.45;;;2.05;;
69900;SDS011;57183;50.930;5.406;2023-05-07T13:20:42;3.33;;;1.60;;
69900;SDS011;57183;50.930;5.406;2023-05-07T13:23:08;4.68;;;1.90;;
69900;SDS011;57183;50.930;5.406;2023-05-07T13:25:34;4.95;;;2.13;;
69900;SDS011;57183;50.930;5.406;2023-05-07T13:28:00;6.63;;;2.53;;
69900;SDS011;57183;50.930;5.406;2023-05-07T13:30:25;8.27;;;2.50;;
69900;SDS011;57183;50.930;5.406;2023-05-07T13:32:55;4.45;;;2.28;;
69900;SDS011;57183;50.930;5.406;2023-05-07T13:35:21;6.40;;;2.88;;
69900;SDS011;57183;50.930;5.406;2023-05-07T13:37:47;6.00;;;3.00;;
69900;SDS011;57183;50.930;5.406;2023-05-07T13:40:17;8.20;;;3.08;;
69900;SDS011;57183;50.930;5.406;2023-05-07T13:42:43;7.07;;;3.20;;
69900;SDS011;57183;50.930;5.406;2023-05-07T13:45:09;8.63;;;2.30;;
69900;SDS011;57183;50.930;5.406;2023-05-07T13:47:35;3.20;;;1.52;;
69900;SDS011;57183;50.930;5.406;2023-05-07T13:50:01;3.40;;;1.00;;
69900;SDS011;57183;50.930;5.406;2023-05-07T13:52:27;2.78;;;1.15;;
69900;SDS011;57183;50.930;5.406;2023-05-07T13:54:53;3.97;;;1.20;;
69900;SDS011;57183;50.930;5.406;2023-05-07T13:57:20;3.20;;;1.23;;
69900;SDS011;57183;50.930;5.406;2023-05-07T13:59:45;5.80;;;1.70;;
69900;SDS011;57183;50.930;5.406;2023-05-07T14:02:11;5.72;;;2.28;;
69900;SDS011;57183;50.930;5.406;2023-05-07T14:04:37;4.95;;;1.80;;
69900;SDS011;57183;50.930;5.406;2023-05-07T14:07:03;10.10;;;3.75;;
69900;SDS011;57183;50.930;5.406;2023-05-07T14:09:29;3.15;;;1.95;;
69900;SDS011;57183;50.930;5.406;2023-05-07T14:11:54;7.05;;;2.67;;
69900;SDS011;57183;50.930;5.406;2023-05-07T14:14:20;5.13;;;1.98;;
69900;SDS011;57183;50.930;5.406;2023-05-07T14:16:46;4.38;;;2.67;;
69900;SDS011;57183;50.930;5.406;2023-05-07T14:19:12;4.38;;;2.22;;
69900;SDS011;57183;50.930;5.406;2023-05-07T14:21:37;5.40;;;2.05;;
69900;SDS011;57183;50.930;5.406;2023-05-07T14:24:04;3.30;;;2.70;;
69900;SDS011;57183;50.930;5.406;2023-05-07T14:26:31;7.43;;;2.63;;
69900;SDS011;57183;50.930;5.406;2023-05-07T14:28:57;3.65;;;2.17;;
69900;SDS011;57183;50.930;5.406;2023-05-07T14:31:23;3.63;;;2.28;;
69900;SDS011;57183;50.930;5.406;2023-05-07T14:33:49;6.53;;;2.33;;
69900;SDS011;57183;50.930;5.406;2023-05-07T14:36:16;3.55;;;2.13;;
69900;SDS011;57183;50.930;5.406;2023-05-07T14:38:42;4.57;;;2.60;;
69900;SDS011;57183;50.930;5.406;2023-05-07T14:41:08;3.25;;;1.77;;
69900;SDS011;57183;50.930;5.406;2023-05-07T14:43:34;1.33;;;1.20;;
69900;SDS011;57183;50.930;5.406;2023-05-07T14:45:59;5.10;;;1.60;;
69900;SDS011;57183;50.930;5.406;2023-05-07T14:48:25;3.85;;;2.13;;
69900;SDS011;57183;50.930;5.406;2023-05-07T14:50:50;4.18;;;1.67;;
69900;SDS011;57183;50.930;5.406;2023-05-07T14:53:16;2.35;;;1.83;;
69900;SDS011;57183;50.930;5.406;2023-05-07T14:55:42;5.55;;;1.58;;
69900;SDS011;57183;50.930;5.406;2023-05-07T14:58:07;5.65;;;2.13;;
69900;SDS011;57183;50.930;5.406;2023-05-07T15:00:33;3.63;;;2.00;;
69900;SDS011;57183;50.930;5.406;2023-05-07T15:03:04;2.40;;;1.70;;
69900;SDS011;57183;50.930;5.406;2023-05-07T15:05:32;2.65;;;1.95;;
69900;SDS011;57183;50.930;5.406;2023-05-07T15:07:57;6.03;;;2.70;;
69900;SDS011;57183;50.930;5.406;2023-05-07T15:10:23;4.75;;;1.73;;
69900;SDS011;57183;50.930;5.406;2023-05-07T15:12:49;3.45;;;2.05;;
69900;SDS011;57183;50.930;5.406;2023-05-07T15:15:15;4.25;;;2.53;;
69900;SDS011;57183;50.930;5.406;2023-05-07T15:17:41;2.90;;;1.90;;
69900;SDS011;57183;50.930;5.406;2023-05-07T15:20:07;3.47;;;1.77;;